sensor_id;sensor_type;location;lat;lon;timestamp;P1;durP1;ratioP1;P2;durP2;ratioP2
14872;SDS011;7528;48.576;19.122;2023-06-05T00:01:24;5.50;;;5.00;;
14872;SDS011;7528;48.576;19.122;2023-06-05T00:06:27;6.18;;;4.82;;
14872;SDS011;7528;48.576;19.122;2023-06-05T00:11:30;5.43;;;4.93;;
14872;SDS011;7528;48.576;19.122;2023-06-05T00:16:33;6.28;;;4.97;;
14872;SDS011;7528;48.576;19.122;2023-06-05T00:21:37;5.18;;;4.57;;
14872;SDS011;7528;48.576;19.122;2023-06-05T00:26:39;5.18;;;4.15;;
14872;SDS011;7528;48.576;19.122;2023-06-05T00:31:42;5.80;;;4.63;;
14872;SDS011;7528;48.576;19.122;2023-06-05T00:36:47;5.63;;;4.65;;
14872;SDS011;7528;48.576;19.122;2023-06-05T00:41:51;6.80;;;4.80;;
14872;SDS011;7528;48.576;19.122;2023-06-05T00:46:53;5.32;;;4.82;;
14872;SDS011;7528;48.576;19.122;2023-06-05T00:51:58;5.90;;;5.07;;
14872;SDS011;7528;48.576;19.122;2023-06-05T00:57:01;5.88;;;4.85;;
14872;SDS011;7528;48.576;19.122;2023-06-05T01:02:04;5.70;;;5.10;;
14872;SDS011;7528;48.576;19.122;2023-06-05T01:07:08;6.32;;;5.72;;
14872;SDS011;7528;48.576;19.122;2023-06-05T01:12:13;5.65;;;4.60;;
14872;SDS011;7528;48.576;19.122;2023-06-05T01:17:19;6.28;;;5.30;;
14872;SDS011;7528;48.576;19.122;2023-06-05T01:22:26;5.63;;;4.60;;
14872;SDS011;7528;48.576;19.122;2023-06-05T01:27:32;5.38;;;4.88;;
14872;SDS011;7528;48.576;19.122;2023-06-05T01:32:42;5.40;;;4.78;;
14872;SDS011;7528;48.576;19.122;2023-06-05T01:37:49;6.18;;;4.90;;
14872;SDS011;7528;48.576;19.122;2023-06-05T01:42:54;5.38;;;4.88;;
14872;SDS011;7528;48.576;19.122;2023-06-05T01:47:57;5.57;;;4.70;;
14872;SDS011;7528;48.576;19.122;2023-06-05T01:52:59;5.07;;;4.32;;
14872;SDS011;7528;48.576;19.122;2023-06-05T01:58:04;5.40;;;4.90;;
14872;SDS011;7528;48.576;19.122;2023-06-05T02:03:06;5.50;;;4.95;;
14872;SDS011;7528;48.576;19.122;2023-06-05T02:08:09;5.07;;;4.40;;
14872;SDS011;7528;48.576;19.122;2023-06-05T02:13:14;5.47;;;4.97;;
14872;SDS011;7528;48.576;19.122;2023-06-05T02:18:17;5.90;;;5.03;;
14872;SDS011;7528;48.576;19.122;2023-06-05T02:23:20;6.22;;;5.03;;
14872;SDS011;7528;48.576;19.122;2023-06-05T02:28:24;6.80;;;4.75;;
14872;SDS011;7528;48.576;19.122;2023-06-05T02:33:27;5.75;;;4.68;;
14872;SDS011;7528;48.576;19.122;2023-06-05T02:38:29;5.65;;;4.97;;
14872;SDS011;7528;48.576;19.122;2023-06-05T02:43:34;5.10;;;4.70;;
14872;SDS011;7528;48.576;19.122;2023-06-05T02:48:36;5.13;;;4.63;;
14872;SDS011;7528;48.576;19.122;2023-06-05T02:53:39;6.07;;;5.47;;
14872;SDS011;7528;48.576;19.122;2023-06-05T02:58:43;5.65;;;4.85;;
14872;SDS011;7528;48.576;19.122;2023-06-05T03:03:46;7.05;;;5.10;;
14872;SDS011;7528;48.576;19.122;2023-06-05T03:08:51;7.40;;;5.28;;
14872;SDS011;7528;48.576;19.122;2023-06-05T03:13:58;5.53;;;5.03;;
14872;SDS011;7528;48.576;19.122;2023-06-05T03:19:03;6.80;;;5.53;;
14872;SDS011;7528;48.576;19.122;2023-06-05T03:24:06;6.55;;;5.95;;
14872;SDS011;7528;48.576;19.122;2023-06-05T03:29:15;5.78;;;5.18;;
14872;SDS011;7528;48.576;19.122;2023-06-05T03:34:18;5.65;;;5.15;;
14872;SDS011;7528;48.576;19.122;2023-06-05T03:39:24;5.70;;;5.20;;
14872;SDS011;7528;48.576;19.122;2023-06-05T03:44:29;6.18;;;4.95;;
14872;SDS011;7528;48.576;19.122;2023-06-05T03:49:32;5.35;;;4.82;;
14872;SDS011;7528;48.576;19.122;2023-06-05T03:54:36;6.38;;;5.70;;
14872;SDS011;7528;48.576;19.122;2023-06-05T03:59:40;6.00;;;5.38;;
14872;SDS011;7528;48.576;19.122;2023-06-05T04:04:43;6.18;;;5.30;;
14872;SDS011;7528;48.576;19.122;2023-06-05T04:09:47;5.68;;;4.93;;
14872;SDS011;7528;48.576;19.122;2023-06-05T04:14:51;6.65;;;5.28;;
14872;SDS011;7528;48.576;19.122;2023-06-05T04:19:54;6.30;;;5.60;;
14872;SDS011;7528;48.576;19.122;2023-06-05T04:24:57;6.85;;;6.15;;
14872;SDS011;7528;48.576;19.122;2023-06-05T04:30:01;7.13;;;5.85;;
14872;SDS011;7528;48.576;19.122;2023-06-05T04:35:04;7.53;;;6.80;;
14872;SDS011;7528;48.576;19.122;2023-06-05T04:40:07;6.97;;;6.32;;
14872;SDS011;7528;48.576;19.122;2023-06-05T04:45:11;8.20;;;6.18;;
14872;SDS011;7528;48.576;19.122;2023-06-05T04:50:23;7.63;;;6.40;;
14872;SDS011;7528;48.576;19.122;2023-06-05T04:55:31;7.15;;;5.53;;
14872;SDS011;7528;48.576;19.122;2023-06-05T05:00:35;6.97;;;6.20;;
14872;SDS011;7528;48.576;19.122;2023-06-05T05:05:40;6.82;;;6.22;;
14872;SDS011;7528;48.576;19.122;2023-06-05T05:10:42;6.40;;;5.78;;
14872;SDS011;7528;48.576;19.122;2023-06-05T05:15:46;7.70;;;7.00;;
14872;SDS011;7528;48.576;19.122;2023-06-05T05:20:53;6.95;;;5.70;;
14872;SDS011;7528;48.576;19.122;2023-06-05T05:31:14;6.82;;;5.90;;
14872;SDS011;7528;48.576;19.122;2023-06-05T05:36:19;6.88;;;5.40;;
14872;SDS011;7528;48.576;19.122;2023-06-05T05:41:22;6.30;;;5.70;;
14872;SDS011;7528;48.576;19.122;2023-06-05T05:46:26;6.47;;;5.82;;
14872;SDS011;7528;48.576;19.122;2023-06-05T05:51:29;7.20;;;6.13;;
14872;SDS011;7528;48.576;19.122;2023-06-05T05:56:31;6.57;;;5.97;;
14872;SDS011;7528;48.576;19.122;2023-06-05T06:01:37;6.90;;;6.20;;
14872;SDS011;7528;48.576;19.122;2023-06-05T06:06:40;6.45;;;5.65;;
14872;SDS011;7528;48.576;19.122;2023-06-05T06:11:42;5.82;;;5.32;;
14872;SDS011;7528;48.576;19.122;2023-06-05T06:16:46;6.70;;;5.65;;
14872;SDS011;7528;48.576;19.122;2023-06-05T06:21:50;5.80;;;5.20;;
14872;SDS011;7528;48.576;19.122;2023-06-05T06:26:53;6.32;;;5.50;;
14872;SDS011;7528;48.576;19.122;2023-06-05T06:31:56;8.23;;;5.45;;
14872;SDS011;7528;48.576;19.122;2023-06-05T06:36:59;6.57;;;5.43;;
14872;SDS011;7528;48.576;19.122;2023-06-05T06:42:01;6.50;;;5.80;;
14872;SDS011;7528;48.576;19.122;2023-06-05T06:47:08;6.32;;;5.68;;
14872;SDS011;7528;48.576;19.122;2023-06-05T06:52:11;6.85;;;6.15;;
14872;SDS011;7528;48.576;19.122;2023-06-05T06:57:13;7.03;;;5.75;;
14872;SDS011;7528;48.576;19.122;2023-06-05T07:02:18;6.57;;;5.88;;
14872;SDS011;7528;48.576;19.122;2023-06-05T07:07:21;6.90;;;5.90;;
14872;SDS011;7528;48.576;19.122;2023-06-05T07:12:28;6.38;;;5.28;;
14872;SDS011;7528;48.576;19.122;2023-06-05T07:17:32;6.90;;;5.63;;
14872;SDS011;7528;48.576;19.122;2023-06-05T07:22:34;6.80;;;5.80;;
14872;SDS011;7528;48.576;19.122;2023-06-05T07:32:55;6.65;;;5.97;;
14872;SDS011;7528;48.576;19.122;2023-06-05T07:37:58;7.00;;;6.32;;
14872;SDS011;7528;48.576;19.122;2023-06-05T07:43:00;7.32;;;5.70;;
14872;SDS011;7528;48.576;19.122;2023-06-05T07:48:04;6.80;;;5.35;;
14872;SDS011;7528;48.576;19.122;2023-06-05T07:53:07;6.07;;;5.43;;
14872;SDS011;7528;48.576;19.122;2023-06-05T07:58:09;7.57;;;6.03;;
14872;SDS011;7528;48.576;19.122;2023-06-05T08:03:13;5.93;;;5.32;;
14872;SDS011;7528;48.576;19.122;2023-06-05T08:08:20;7.15;;;5.40;;
14872;SDS011;7528;48.576;19.122;2023-06-05T08:13:22;6.10;;;5.50;;
14872;SDS011;7528;48.576;19.122;2023-06-05T08:18:26;6.43;;;5.65;;
14872;SDS011;7528;48.576;19.122;2023-06-05T08:23:28;6.55;;;5.47;;
14872;SDS011;7528;48.576;19.122;2023-06-05T08:28:31;6.05;;;5.45;;
14872;SDS011;7528;48.576;19.122;2023-06-05T08:33:35;6.18;;;5.57;;
14872;SDS011;7528;48.576;19.122;2023-06-05T08:38:38;6.05;;;5.45;;
14872;SDS011;7528;48.576;19.122;2023-06-05T08:43:40;7.47;;;5.75;;
14872;SDS011;7528;48.576;19.122;2023-06-05T08:48:46;5.65;;;5.18;;
14872;SDS011;7528;48.576;19.122;2023-06-05T08:53:51;6.43;;;5.38;;
14872;SDS011;7528;48.576;19.122;2023-06-05T08:58:59;6.30;;;5.22;;
14872;SDS011;7528;48.576;19.122;2023-06-05T09:04:03;6.53;;;5.47;;
14872;SDS011;7528;48.576;19.122;2023-06-05T09:09:05;6.80;;;5.00;;
14872;SDS011;7528;48.576;19.122;2023-06-05T09:14:09;6.80;;;5.55;;
14872;SDS011;7528;48.576;19.122;2023-06-05T09:19:14;5.72;;;5.18;;
14872;SDS011;7528;48.576;19.122;2023-06-05T09:24:18;5.70;;;5.20;;
14872;SDS011;7528;48.576;19.122;2023-06-05T09:29:22;6.68;;;5.75;;
14872;SDS011;7528;48.576;19.122;2023-06-05T09:34:27;7.97;;;5.35;;
14872;SDS011;7528;48.576;19.122;2023-06-05T09:39:32;7.00;;;5.13;;
14872;SDS011;7528;48.576;19.122;2023-06-05T09:44:36;6.63;;;4.95;;
14872;SDS011;7528;48.576;19.122;2023-06-05T09:49:46;5.57;;;5.05;;
14872;SDS011;7528;48.576;19.122;2023-06-05T09:54:49;6.15;;;4.78;;
14872;SDS011;7528;48.576;19.122;2023-06-05T09:59:55;6.20;;;5.38;;
14872;SDS011;7528;48.576;19.122;2023-06-05T10:05:00;6.68;;;5.07;;
14872;SDS011;7528;48.576;19.122;2023-06-05T10:56:52;4.97;;;4.30;;
14872;SDS011;7528;48.576;19.122;2023-06-05T11:07:26;5.43;;;4.13;;
14872;SDS011;7528;48.576;19.122;2023-06-05T11:23:32;5.47;;;4.45;;
14872;SDS011;7528;48.576;19.122;2023-06-05T11:28:41;6.90;;;4.38;;
14872;SDS011;7528;48.576;19.122;2023-06-05T11:33:44;5.50;;;3.80;;
14872;SDS011;7528;48.576;19.122;2023-06-05T11:38:53;4.75;;;4.32;;
14872;SDS011;7528;48.576;19.122;2023-06-05T11:43:56;5.45;;;4.18;;
14872;SDS011;7528;48.576;19.122;2023-06-05T11:48:59;5.20;;;4.00;;
14872;SDS011;7528;48.576;19.122;2023-06-05T11:54:03;4.45;;;4.05;;
14872;SDS011;7528;48.576;19.122;2023-06-05T11:59:08;4.50;;;4.10;;
14872;SDS011;7528;48.576;19.122;2023-06-05T12:04:11;5.05;;;4.10;;
14872;SDS011;7528;48.576;19.122;2023-06-05T12:09:16;5.63;;;4.32;;
14872;SDS011;7528;48.576;19.122;2023-06-05T12:19:39;6.68;;;4.75;;
14872;SDS011;7528;48.576;19.122;2023-06-05T12:24:43;6.18;;;4.32;;
14872;SDS011;7528;48.576;19.122;2023-06-05T12:29:52;8.23;;;5.00;;
14872;SDS011;7528;48.576;19.122;2023-06-05T12:34:56;5.05;;;3.70;;
14872;SDS011;7528;48.576;19.122;2023-06-05T12:39:59;5.22;;;4.18;;
14872;SDS011;7528;48.576;19.122;2023-06-05T12:45:09;4.88;;;4.13;;
14872;SDS011;7528;48.576;19.122;2023-06-05T12:50:12;4.20;;;3.80;;
14872;SDS011;7528;48.576;19.122;2023-06-05T12:55:17;4.10;;;3.80;;
14872;SDS011;7528;48.576;19.122;2023-06-05T13:00:20;3.95;;;3.42;;
14872;SDS011;7528;48.576;19.122;2023-06-05T13:05:22;5.60;;;4.45;;
14872;SDS011;7528;48.576;19.122;2023-06-05T13:10:26;4.95;;;4.20;;
14872;SDS011;7528;48.576;19.122;2023-06-05T13:15:29;4.03;;;3.70;;
14872;SDS011;7528;48.576;19.122;2023-06-05T13:20:31;7.78;;;4.22;;
14872;SDS011;7528;48.576;19.122;2023-06-05T13:25:35;4.10;;;3.70;;
14872;SDS011;7528;48.576;19.122;2023-06-05T13:30:40;4.40;;;3.78;;
14872;SDS011;7528;48.576;19.122;2023-06-05T19:29:22;6.55;;;5.80;;
14872;SDS011;7528;48.576;19.122;2023-06-05T19:34:25;6.22;;;5.28;;
14872;SDS011;7528;48.576;19.122;2023-06-05T19:39:27;6.47;;;5.57;;
14872;SDS011;7528;48.576;19.122;2023-06-05T19:44:32;6.35;;;5.75;;
14872;SDS011;7528;48.576;19.122;2023-06-05T19:49:34;6.30;;;5.70;;
14872;SDS011;7528;48.576;19.122;2023-06-05T19:54:36;6.35;;;5.75;;
14872;SDS011;7528;48.576;19.122;2023-06-05T19:59:40;6.70;;;6.05;;
14872;SDS011;7528;48.576;19.122;2023-06-05T20:04:44;6.05;;;5.45;;
14872;SDS011;7528;48.576;19.122;2023-06-05T20:09:47;10.50;;;5.75;;
14872;SDS011;7528;48.576;19.122;2023-06-05T20:14:50;6.70;;;6.10;;
14872;SDS011;7528;48.576;19.122;2023-06-05T20:19:53;7.03;;;5.90;;
14872;SDS011;7528;48.576;19.122;2023-06-05T20:24:55;7.43;;;5.68;;
14872;SDS011;7528;48.576;19.122;2023-06-05T20:29:59;6.03;;;5.53;;
14872;SDS011;7528;48.576;19.122;2023-06-05T20:35:02;7.00;;;6.28;;
14872;SDS011;7528;48.576;19.122;2023-06-05T20:40:06;6.90;;;6.30;;
14872;SDS011;7528;48.576;19.122;2023-06-05T20:45:11;7.70;;;5.72;;
14872;SDS011;7528;48.576;19.122;2023-06-05T20:50:14;6.90;;;6.22;;
14872;SDS011;7528;48.576;19.122;2023-06-05T20:55:21;8.80;;;5.88;;
14872;SDS011;7528;48.576;19.122;2023-06-05T21:00:25;7.72;;;6.45;;
14872;SDS011;7528;48.576;19.122;2023-06-05T21:05:27;5.85;;;5.25;;
14872;SDS011;7528;48.576;19.122;2023-06-05T21:10:30;5.85;;;5.35;;
14872;SDS011;7528;48.576;19.122;2023-06-05T21:15:34;6.88;;;6.20;;
14872;SDS011;7528;48.576;19.122;2023-06-05T21:20:36;6.78;;;5.90;;
14872;SDS011;7528;48.576;19.122;2023-06-05T21:25:39;6.10;;;5.50;;
14872;SDS011;7528;48.576;19.122;2023-06-05T21:30:42;6.40;;;5.78;;
14872;SDS011;7528;48.576;19.122;2023-06-05T21:35:45;6.22;;;5.63;;
14872;SDS011;7528;48.576;19.122;2023-06-05T21:40:48;6.70;;;6.03;;
14872;SDS011;7528;48.576;19.122;2023-06-05T21:45:51;6.55;;;5.95;;
14872;SDS011;7528;48.576;19.122;2023-06-05T21:50:54;7.45;;;5.78;;
14872;SDS011;7528;48.576;19.122;2023-06-05T21:55:56;6.00;;;5.40;;
14872;SDS011;7528;48.576;19.122;2023-06-05T22:01:00;6.38;;;5.78;;
14872;SDS011;7528;48.576;19.122;2023-06-05T22:06:03;7.53;;;6.57;;
14872;SDS011;7528;48.576;19.122;2023-06-05T22:11:05;6.43;;;5.82;;
14872;SDS011;7528;48.576;19.122;2023-06-05T22:16:09;7.15;;;5.90;;
14872;SDS011;7528;48.576;19.122;2023-06-05T22:21:12;7.22;;;6.53;;
14872;SDS011;7528;48.576;19.122;2023-06-05T22:26:14;7.28;;;6.57;;
14872;SDS011;7528;48.576;19.122;2023-06-05T22:31:18;8.68;;;6.43;;
14872;SDS011;7528;48.576;19.122;2023-06-05T22:36:22;7.03;;;6.43;;
14872;SDS011;7528;48.576;19.122;2023-06-05T22:41:29;7.35;;;6.65;;
14872;SDS011;7528;48.576;19.122;2023-06-05T22:46:33;7.30;;;6.65;;
14872;SDS011;7528;48.576;19.122;2023-06-05T22:51:37;6.45;;;5.88;;
14872;SDS011;7528;48.576;19.122;2023-06-05T22:56:40;7.05;;;6.35;;
14872;SDS011;7528;48.576;19.122;2023-06-05T23:01:44;6.95;;;6.35;;
14872;SDS011;7528;48.576;19.122;2023-06-05T23:06:47;6.90;;;6.22;;
14872;SDS011;7528;48.576;19.122;2023-06-05T23:11:50;6.90;;;5.93;;
14872;SDS011;7528;48.576;19.122;2023-06-05T23:16:54;7.18;;;6.47;;
14872;SDS011;7528;48.576;19.122;2023-06-05T23:21:57;7.07;;;6.47;;
14872;SDS011;7528;48.576;19.122;2023-06-05T23:26:59;7.68;;;6.22;;
14872;SDS011;7528;48.576;19.122;2023-06-05T23:32:03;8.55;;;6.97;;
14872;SDS011;7528;48.576;19.122;2023-06-05T23:37:06;7.10;;;6.30;;
14872;SDS011;7528;48.576;19.122;2023-06-05T23:42:09;6.88;;;6.28;;
14872;SDS011;7528;48.576;19.122;2023-06-05T23:47:13;7.18;;;6.57;;
14872;SDS011;7528;48.576;19.122;2023-06-05T23:52:15;6.78;;;6.07;;
14872;SDS011;7528;48.576;19.122;2023-06-05T23:57:17;6.97;;;6.38;;
